sensor_id;sensor_type;location;lat;lon;timestamp;P1;durP1;ratioP1;P2;durP2;ratioP2
13067;SDS011;6600;51.362;6.686;2022-09-16T00:01:12;0.53;;;0.53;;
13067;SDS011;6600;51.362;6.686;2022-09-16T00:03:39;1.93;;;0.50;;
13067;SDS011;6600;51.362;6.686;2022-09-16T00:06:05;0.67;;;0.50;;
13067;SDS011;6600;51.362;6.686;2022-09-16T00:08:31;0.33;;;0.23;;
13067;SDS011;6600;51.362;6.686;2022-09-16T00:11:00;1.50;;;0.63;;
13067;SDS011;6600;51.362;6.686;2022-09-16T00:13:26;0.40;;;0.40;;
13067;SDS011;6600;51.362;6.686;2022-09-16T00:15:52;0.60;;;0.60;;
13067;SDS011;6600;51.362;6.686;2022-09-16T00:18:18;0.40;;;0.30;;
13067;SDS011;6600;51.362;6.686;2022-09-16T00:20:51;0.53;;;0.53;;
13067;SDS011;6600;51.362;6.686;2022-09-16T00:23:18;0.30;;;0.30;;
13067;SDS011;6600;51.362;6.686;2022-09-16T00:25:48;0.27;;;0.27;;
13067;SDS011;6600;51.362;6.686;2022-09-16T00:28:21;1.17;;;0.30;;
13067;SDS011;6600;51.362;6.686;2022-09-16T00:30:47;0.57;;;0.27;;
13067;SDS011;6600;51.362;6.686;2022-09-16T00:33:14;0.33;;;0.27;;
13067;SDS011;6600;51.362;6.686;2022-09-16T00:35:40;2.10;;;0.40;;
13067;SDS011;6600;51.362;6.686;2022-09-16T00:38:05;0.30;;;0.30;;
13067;SDS011;6600;51.362;6.686;2022-09-16T00:40:31;1.03;;;0.37;;
13067;SDS011;6600;51.362;6.686;2022-09-16T00:42:57;0.50;;;0.40;;
13067;SDS011;6600;51.362;6.686;2022-09-16T00:45:24;0.40;;;0.40;;
13067;SDS011;6600;51.362;6.686;2022-09-16T00:47:56;1.00;;;0.40;;
13067;SDS011;6600;51.362;6.686;2022-09-16T00:50:31;2.37;;;0.47;;
13067;SDS011;6600;51.362;6.686;2022-09-16T00:53:02;0.40;;;0.40;;
13067;SDS011;6600;51.362;6.686;2022-09-16T00:55:30;0.77;;;0.47;;
13067;SDS011;6600;51.362;6.686;2022-09-16T00:58:01;0.20;;;0.20;;
13067;SDS011;6600;51.362;6.686;2022-09-16T01:00:33;0.60;;;0.40;;
13067;SDS011;6600;51.362;6.686;2022-09-16T01:02:59;0.60;;;0.40;;
13067;SDS011;6600;51.362;6.686;2022-09-16T01:05:24;0.43;;;0.43;;
13067;SDS011;6600;51.362;6.686;2022-09-16T01:07:51;0.70;;;0.43;;
13067;SDS011;6600;51.362;6.686;2022-09-16T01:10:20;0.40;;;0.40;;
13067;SDS011;6600;51.362;6.686;2022-09-16T01:12:49;0.30;;;0.20;;
13067;SDS011;6600;51.362;6.686;2022-09-16T01:15:17;0.20;;;0.20;;
13067;SDS011;6600;51.362;6.686;2022-09-16T01:23:31;0.30;;;0.30;;
13067;SDS011;6600;51.362;6.686;2022-09-16T01:26:41;0.70;;;0.30;;
13067;SDS011;6600;51.362;6.686;2022-09-16T01:32:52;0.30;;;0.30;;
13067;SDS011;6600;51.362;6.686;2022-09-16T01:37:53;1.60;;;0.37;;
13067;SDS011;6600;51.362;6.686;2022-09-16T01:45:55;0.77;;;0.53;;
13067;SDS011;6600;51.362;6.686;2022-09-16T01:59:27;0.20;;;0.20;;
13067;SDS011;6600;51.362;6.686;2022-09-16T02:02:08;0.33;;;0.30;;
13067;SDS011;6600;51.362;6.686;2022-09-16T02:04:50;0.20;;;0.20;;
13067;SDS011;6600;51.362;6.686;2022-09-16T02:07:20;3.50;;;0.50;;
13067;SDS011;6600;51.362;6.686;2022-09-16T02:09:55;0.50;;;0.50;;
13067;SDS011;6600;51.362;6.686;2022-09-16T02:12:25;0.77;;;0.60;;
13067;SDS011;6600;51.362;6.686;2022-09-16T02:14:58;0.63;;;0.40;;
13067;SDS011;6600;51.362;6.686;2022-09-16T02:17:30;1.83;;;0.60;;
13067;SDS011;6600;51.362;6.686;2022-09-16T02:20:04;1.13;;;0.80;;
13067;SDS011;6600;51.362;6.686;2022-09-16T02:22:38;0.30;;;0.30;;
13067;SDS011;6600;51.362;6.686;2022-09-16T02:25:07;0.60;;;0.60;;
13067;SDS011;6600;51.362;6.686;2022-09-16T02:27:34;0.70;;;0.70;;
13067;SDS011;6600;51.362;6.686;2022-09-16T02:30:07;0.43;;;0.43;;
13067;SDS011;6600;51.362;6.686;2022-09-16T02:32:36;2.77;;;0.80;;
13067;SDS011;6600;51.362;6.686;2022-09-16T02:35:06;1.13;;;0.63;;
13067;SDS011;6600;51.362;6.686;2022-09-16T02:37:38;0.50;;;0.50;;
13067;SDS011;6600;51.362;6.686;2022-09-16T02:40:11;0.47;;;0.47;;
13067;SDS011;6600;51.362;6.686;2022-09-16T02:42:41;0.53;;;0.40;;
13067;SDS011;6600;51.362;6.686;2022-09-16T02:45:06;1.07;;;0.70;;
13067;SDS011;6600;51.362;6.686;2022-09-16T02:50:27;0.93;;;0.40;;
13067;SDS011;6600;51.362;6.686;2022-09-16T02:53:01;0.50;;;0.50;;
13067;SDS011;6600;51.362;6.686;2022-09-16T02:55:34;0.47;;;0.40;;
13067;SDS011;6600;51.362;6.686;2022-09-16T02:58:04;1.23;;;0.40;;
13067;SDS011;6600;51.362;6.686;2022-09-16T03:00:31;0.40;;;0.40;;
13067;SDS011;6600;51.362;6.686;2022-09-16T03:03:01;0.50;;;0.50;;
13067;SDS011;6600;51.362;6.686;2022-09-16T03:05:27;0.60;;;0.60;;
13067;SDS011;6600;51.362;6.686;2022-09-16T03:07:53;0.40;;;0.20;;
13067;SDS011;6600;51.362;6.686;2022-09-16T03:10:19;2.20;;;0.40;;
13067;SDS011;6600;51.362;6.686;2022-09-16T03:15:36;0.40;;;0.40;;
13067;SDS011;6600;51.362;6.686;2022-09-16T03:26:09;0.43;;;0.33;;
13067;SDS011;6600;51.362;6.686;2022-09-16T03:31:45;0.43;;;0.43;;
13067;SDS011;6600;51.362;6.686;2022-09-16T03:34:15;0.60;;;0.60;;
13067;SDS011;6600;51.362;6.686;2022-09-16T03:36:46;0.43;;;0.27;;
13067;SDS011;6600;51.362;6.686;2022-09-16T03:39:17;2.10;;;0.50;;
13067;SDS011;6600;51.362;6.686;2022-09-16T03:41:43;0.30;;;0.30;;
13067;SDS011;6600;51.362;6.686;2022-09-16T03:44:09;0.60;;;0.60;;
13067;SDS011;6600;51.362;6.686;2022-09-16T03:46:34;0.40;;;0.40;;
13067;SDS011;6600;51.362;6.686;2022-09-16T03:48:59;1.10;;;0.43;;
13067;SDS011;6600;51.362;6.686;2022-09-16T03:51:25;0.70;;;0.50;;
13067;SDS011;6600;51.362;6.686;2022-09-16T03:53:51;1.17;;;0.63;;
13067;SDS011;6600;51.362;6.686;2022-09-16T03:56:17;0.80;;;0.40;;
13067;SDS011;6600;51.362;6.686;2022-09-16T03:58:43;4.10;;;0.60;;
13067;SDS011;6600;51.362;6.686;2022-09-16T04:01:08;1.27;;;0.60;;
13067;SDS011;6600;51.362;6.686;2022-09-16T04:03:34;0.43;;;0.43;;
13067;SDS011;6600;51.362;6.686;2022-09-16T04:06:01;0.30;;;0.30;;
13067;SDS011;6600;51.362;6.686;2022-09-16T04:08:27;0.33;;;0.33;;
13067;SDS011;6600;51.362;6.686;2022-09-16T04:10:56;1.33;;;0.60;;
13067;SDS011;6600;51.362;6.686;2022-09-16T04:13:24;0.60;;;0.60;;
13067;SDS011;6600;51.362;6.686;2022-09-16T04:15:50;2.93;;;0.70;;
13067;SDS011;6600;51.362;6.686;2022-09-16T04:18:15;1.03;;;0.70;;
13067;SDS011;6600;51.362;6.686;2022-09-16T04:20:41;2.00;;;0.63;;
13067;SDS011;6600;51.362;6.686;2022-09-16T04:23:07;0.53;;;0.53;;
13067;SDS011;6600;51.362;6.686;2022-09-16T04:25:32;0.90;;;0.80;;
13067;SDS011;6600;51.362;6.686;2022-09-16T04:27:58;0.63;;;0.63;;
13067;SDS011;6600;51.362;6.686;2022-09-16T04:30:23;0.60;;;0.60;;
13067;SDS011;6600;51.362;6.686;2022-09-16T04:32:53;1.10;;;0.67;;
13067;SDS011;6600;51.362;6.686;2022-09-16T04:35:20;0.57;;;0.57;;
13067;SDS011;6600;51.362;6.686;2022-09-16T04:37:46;0.60;;;0.60;;
13067;SDS011;6600;51.362;6.686;2022-09-16T04:40:11;0.53;;;0.50;;
13067;SDS011;6600;51.362;6.686;2022-09-16T04:42:37;1.70;;;0.90;;
13067;SDS011;6600;51.362;6.686;2022-09-16T04:45:02;0.80;;;0.80;;
13067;SDS011;6600;51.362;6.686;2022-09-16T04:47:28;0.73;;;0.73;;
13067;SDS011;6600;51.362;6.686;2022-09-16T04:49:54;1.27;;;0.90;;
13067;SDS011;6600;51.362;6.686;2022-09-16T04:52:19;2.87;;;1.20;;
13067;SDS011;6600;51.362;6.686;2022-09-16T04:54:45;3.10;;;1.30;;
13067;SDS011;6600;51.362;6.686;2022-09-16T04:57:10;0.97;;;0.97;;
13067;SDS011;6600;51.362;6.686;2022-09-16T04:59:35;1.37;;;1.03;;
13067;SDS011;6600;51.362;6.686;2022-09-16T05:02:01;0.60;;;0.60;;
13067;SDS011;6600;51.362;6.686;2022-09-16T05:04:26;0.87;;;0.87;;
13067;SDS011;6600;51.362;6.686;2022-09-16T05:06:52;1.33;;;1.00;;
13067;SDS011;6600;51.362;6.686;2022-09-16T05:09:17;0.83;;;0.83;;
13067;SDS011;6600;51.362;6.686;2022-09-16T05:11:45;1.20;;;1.10;;
13067;SDS011;6600;51.362;6.686;2022-09-16T05:14:12;1.10;;;1.00;;
13067;SDS011;6600;51.362;6.686;2022-09-16T05:16:39;1.23;;;1.10;;
13067;SDS011;6600;51.362;6.686;2022-09-16T05:19:05;2.70;;;1.00;;
13067;SDS011;6600;51.362;6.686;2022-09-16T05:21:34;2.67;;;1.10;;
13067;SDS011;6600;51.362;6.686;2022-09-16T05:24:02;1.40;;;1.30;;
13067;SDS011;6600;51.362;6.686;2022-09-16T05:26:30;0.97;;;0.90;;
13067;SDS011;6600;51.362;6.686;2022-09-16T05:29:00;1.20;;;1.10;;
13067;SDS011;6600;51.362;6.686;2022-09-16T05:31:31;1.43;;;1.10;;
13067;SDS011;6600;51.362;6.686;2022-09-16T05:34:02;1.87;;;1.20;;
13067;SDS011;6600;51.362;6.686;2022-09-16T05:36:39;2.00;;;1.00;;
13067;SDS011;6600;51.362;6.686;2022-09-16T05:39:07;0.93;;;0.93;;
13067;SDS011;6600;51.362;6.686;2022-09-16T05:41:32;1.80;;;1.27;;
13067;SDS011;6600;51.362;6.686;2022-09-16T05:43:58;0.73;;;0.73;;
13067;SDS011;6600;51.362;6.686;2022-09-16T05:46:24;0.70;;;0.70;;
13067;SDS011;6600;51.362;6.686;2022-09-16T05:48:51;2.07;;;1.20;;
13067;SDS011;6600;51.362;6.686;2022-09-16T05:51:17;1.80;;;1.07;;
13067;SDS011;6600;51.362;6.686;2022-09-16T05:53:44;0.93;;;0.93;;
13067;SDS011;6600;51.362;6.686;2022-09-16T05:56:11;1.30;;;1.00;;
13067;SDS011;6600;51.362;6.686;2022-09-16T05:58:39;1.10;;;0.93;;
13067;SDS011;6600;51.362;6.686;2022-09-16T06:03:30;0.77;;;0.77;;
13067;SDS011;6600;51.362;6.686;2022-09-16T06:06:05;1.20;;;1.00;;
13067;SDS011;6600;51.362;6.686;2022-09-16T06:08:32;1.20;;;1.10;;
13067;SDS011;6600;51.362;6.686;2022-09-16T06:10:59;1.37;;;1.00;;
13067;SDS011;6600;51.362;6.686;2022-09-16T06:13:30;0.97;;;0.97;;
13067;SDS011;6600;51.362;6.686;2022-09-16T06:15:55;0.80;;;0.80;;
13067;SDS011;6600;51.362;6.686;2022-09-16T06:18:22;1.07;;;0.97;;
13067;SDS011;6600;51.362;6.686;2022-09-16T06:20:48;3.13;;;1.00;;
13067;SDS011;6600;51.362;6.686;2022-09-16T06:23:14;1.33;;;0.70;;
13067;SDS011;6600;51.362;6.686;2022-09-16T06:25:40;1.20;;;0.90;;
13067;SDS011;6600;51.362;6.686;2022-09-16T06:28:06;1.00;;;1.00;;
13067;SDS011;6600;51.362;6.686;2022-09-16T06:30:33;0.40;;;0.40;;
13067;SDS011;6600;51.362;6.686;2022-09-16T06:32:58;0.67;;;0.60;;
13067;SDS011;6600;51.362;6.686;2022-09-16T06:35:23;2.10;;;0.77;;
13067;SDS011;6600;51.362;6.686;2022-09-16T06:37:49;0.80;;;0.80;;
13067;SDS011;6600;51.362;6.686;2022-09-16T06:40:14;4.23;;;0.83;;
13067;SDS011;6600;51.362;6.686;2022-09-16T06:42:40;0.67;;;0.67;;
13067;SDS011;6600;51.362;6.686;2022-09-16T06:45:06;1.03;;;0.77;;
13067;SDS011;6600;51.362;6.686;2022-09-16T06:47:31;1.63;;;0.83;;
13067;SDS011;6600;51.362;6.686;2022-09-16T06:49:57;1.20;;;0.60;;
13067;SDS011;6600;51.362;6.686;2022-09-16T06:52:23;0.80;;;0.80;;
13067;SDS011;6600;51.362;6.686;2022-09-16T06:54:49;1.50;;;1.27;;
13067;SDS011;6600;51.362;6.686;2022-09-16T06:57:15;0.77;;;0.77;;
13067;SDS011;6600;51.362;6.686;2022-09-16T06:59:42;1.87;;;1.20;;
13067;SDS011;6600;51.362;6.686;2022-09-16T07:02:08;1.53;;;0.90;;
13067;SDS011;6600;51.362;6.686;2022-09-16T07:04:34;0.70;;;0.70;;
13067;SDS011;6600;51.362;6.686;2022-09-16T07:07:00;1.03;;;0.70;;
13067;SDS011;6600;51.362;6.686;2022-09-16T07:09:25;0.90;;;0.63;;
13067;SDS011;6600;51.362;6.686;2022-09-16T07:11:51;1.07;;;0.90;;
13067;SDS011;6600;51.362;6.686;2022-09-16T07:14:16;2.97;;;1.00;;
13067;SDS011;6600;51.362;6.686;2022-09-16T07:16:42;0.83;;;0.83;;
13067;SDS011;6600;51.362;6.686;2022-09-16T07:19:07;1.27;;;0.80;;
13067;SDS011;6600;51.362;6.686;2022-09-16T07:21:32;0.60;;;0.60;;
13067;SDS011;6600;51.362;6.686;2022-09-16T07:23:59;0.90;;;0.90;;
13067;SDS011;6600;51.362;6.686;2022-09-16T07:26:27;1.57;;;1.00;;
13067;SDS011;6600;51.362;6.686;2022-09-16T07:28:55;1.60;;;0.90;;
13067;SDS011;6600;51.362;6.686;2022-09-16T07:31:25;0.70;;;0.37;;
13067;SDS011;6600;51.362;6.686;2022-09-16T07:33:55;0.50;;;0.50;;
13067;SDS011;6600;51.362;6.686;2022-09-16T07:36:25;1.17;;;0.60;;
13067;SDS011;6600;51.362;6.686;2022-09-16T07:38:53;0.70;;;0.70;;
13067;SDS011;6600;51.362;6.686;2022-09-16T07:41:21;0.93;;;0.70;;
13067;SDS011;6600;51.362;6.686;2022-09-16T07:43:48;0.67;;;0.63;;
13067;SDS011;6600;51.362;6.686;2022-09-16T07:46:15;0.60;;;0.60;;
13067;SDS011;6600;51.362;6.686;2022-09-16T07:48:43;0.57;;;0.57;;
13067;SDS011;6600;51.362;6.686;2022-09-16T07:51:19;1.43;;;1.00;;
13067;SDS011;6600;51.362;6.686;2022-09-16T07:53:47;0.70;;;0.70;;
13067;SDS011;6600;51.362;6.686;2022-09-16T07:56:17;0.53;;;0.53;;
13067;SDS011;6600;51.362;6.686;2022-09-16T07:58:45;1.20;;;1.10;;
13067;SDS011;6600;51.362;6.686;2022-09-16T08:01:11;1.43;;;0.47;;
13067;SDS011;6600;51.362;6.686;2022-09-16T08:03:39;1.33;;;0.50;;
13067;SDS011;6600;51.362;6.686;2022-09-16T08:06:07;0.73;;;0.73;;
13067;SDS011;6600;51.362;6.686;2022-09-16T08:08:37;0.40;;;0.40;;
13067;SDS011;6600;51.362;6.686;2022-09-16T08:11:03;0.30;;;0.30;;
13067;SDS011;6600;51.362;6.686;2022-09-16T08:13:30;0.47;;;0.47;;
13067;SDS011;6600;51.362;6.686;2022-09-16T08:16:06;2.20;;;0.60;;
13067;SDS011;6600;51.362;6.686;2022-09-16T08:18:35;1.37;;;0.60;;
13067;SDS011;6600;51.362;6.686;2022-09-16T08:21:10;0.60;;;0.43;;
13067;SDS011;6600;51.362;6.686;2022-09-16T08:23:37;1.93;;;0.77;;
13067;SDS011;6600;51.362;6.686;2022-09-16T08:26:04;0.50;;;0.50;;
13067;SDS011;6600;51.362;6.686;2022-09-16T08:28:30;0.67;;;0.30;;
13067;SDS011;6600;51.362;6.686;2022-09-16T08:30:59;0.40;;;0.40;;
13067;SDS011;6600;51.362;6.686;2022-09-16T08:33:25;1.57;;;0.70;;
13067;SDS011;6600;51.362;6.686;2022-09-16T08:36:01;1.27;;;0.40;;
13067;SDS011;6600;51.362;6.686;2022-09-16T08:38:27;0.37;;;0.37;;
13067;SDS011;6600;51.362;6.686;2022-09-16T08:40:55;0.27;;;0.23;;
13067;SDS011;6600;51.362;6.686;2022-09-16T08:43:36;1.40;;;0.20;;
13067;SDS011;6600;51.362;6.686;2022-09-16T08:46:17;1.67;;;0.30;;
13067;SDS011;6600;51.362;6.686;2022-09-16T08:48:58;0.40;;;0.40;;
13067;SDS011;6600;51.362;6.686;2022-09-16T08:51:30;1.20;;;0.50;;
13067;SDS011;6600;51.362;6.686;2022-09-16T08:53:57;0.50;;;0.20;;
13067;SDS011;6600;51.362;6.686;2022-09-16T08:56:44;0.17;;;0.17;;
13067;SDS011;6600;51.362;6.686;2022-09-16T08:59:14;0.33;;;0.33;;
13067;SDS011;6600;51.362;6.686;2022-09-16T09:04:40;0.30;;;0.27;;
13067;SDS011;6600;51.362;6.686;2022-09-16T09:20:48;1.80;;;0.53;;
13067;SDS011;6600;51.362;6.686;2022-09-16T09:25:51;0.77;;;0.50;;
13067;SDS011;6600;51.362;6.686;2022-09-16T09:34:25;1.50;;;0.53;;
13067;SDS011;6600;51.362;6.686;2022-09-16T09:37:18;0.57;;;0.10;;
13067;SDS011;6600;51.362;6.686;2022-09-16T09:40:22;0.67;;;0.37;;
13067;SDS011;6600;51.362;6.686;2022-09-16T09:43:11;0.63;;;0.20;;
13067;SDS011;6600;51.362;6.686;2022-09-16T09:45:52;0.30;;;0.30;;
13067;SDS011;6600;51.362;6.686;2022-09-16T09:48:24;0.30;;;0.30;;
13067;SDS011;6600;51.362;6.686;2022-09-16T09:50:54;0.30;;;0.30;;
13067;SDS011;6600;51.362;6.686;2022-09-16T09:53:24;0.30;;;0.30;;
13067;SDS011;6600;51.362;6.686;2022-09-16T09:55:56;0.27;;;0.20;;
13067;SDS011;6600;51.362;6.686;2022-09-16T09:58:33;0.40;;;0.20;;
13067;SDS011;6600;51.362;6.686;2022-09-16T10:01:05;2.00;;;0.20;;
13067;SDS011;6600;51.362;6.686;2022-09-16T10:03:30;0.30;;;0.10;;
13067;SDS011;6600;51.362;6.686;2022-09-16T10:05:56;0.10;;;0.10;;
13067;SDS011;6600;51.362;6.686;2022-09-16T10:08:29;0.20;;;0.20;;
13067;SDS011;6600;51.362;6.686;2022-09-16T10:11:02;0.60;;;0.20;;
13067;SDS011;6600;51.362;6.686;2022-09-16T10:13:45;3.27;;;0.47;;
13067;SDS011;6600;51.362;6.686;2022-09-16T10:16:13;0.10;;;0.10;;
13067;SDS011;6600;51.362;6.686;2022-09-16T10:18:42;0.20;;;0.10;;
13067;SDS011;6600;51.362;6.686;2022-09-16T10:21:11;1.03;;;0.30;;
13067;SDS011;6600;51.362;6.686;2022-09-16T10:23:39;1.33;;;0.47;;
13067;SDS011;6600;51.362;6.686;2022-09-16T10:26:16;0.67;;;0.50;;
13067;SDS011;6600;51.362;6.686;2022-09-16T10:28:57;0.10;;;0.10;;
13067;SDS011;6600;51.362;6.686;2022-09-16T10:31:39;1.20;;;0.27;;
13067;SDS011;6600;51.362;6.686;2022-09-16T10:34:28;1.23;;;0.20;;
13067;SDS011;6600;51.362;6.686;2022-09-16T10:37:03;0.90;;;0.30;;
13067;SDS011;6600;51.362;6.686;2022-09-16T10:39:42;3.20;;;0.93;;
13067;SDS011;6600;51.362;6.686;2022-09-16T10:42:14;1.00;;;0.13;;
13067;SDS011;6600;51.362;6.686;2022-09-16T10:44:43;0.10;;;0.10;;
13067;SDS011;6600;51.362;6.686;2022-09-16T10:47:20;1.07;;;0.60;;
13067;SDS011;6600;51.362;6.686;2022-09-16T10:49:51;1.57;;;0.20;;
13067;SDS011;6600;51.362;6.686;2022-09-16T10:52:24;0.50;;;0.37;;
13067;SDS011;6600;51.362;6.686;2022-09-16T10:54:51;0.20;;;0.20;;
13067;SDS011;6600;51.362;6.686;2022-09-16T10:57:21;0.73;;;0.30;;
13067;SDS011;6600;51.362;6.686;2022-09-16T11:02:31;0.40;;;0.20;;
13067;SDS011;6600;51.362;6.686;2022-09-16T11:10:51;0.20;;;0.20;;
13067;SDS011;6600;51.362;6.686;2022-09-16T11:38:34;1.50;;;0.30;;
13067;SDS011;6600;51.362;6.686;2022-09-16T11:41:40;1.03;;;0.60;;
13067;SDS011;6600;51.362;6.686;2022-09-16T11:44:24;0.60;;;0.30;;
13067;SDS011;6600;51.362;6.686;2022-09-16T11:58:21;0.63;;;0.40;;
13067;SDS011;6600;51.362;6.686;2022-09-16T12:00:53;0.00;;;0.00;;
13067;SDS011;6600;51.362;6.686;2022-09-16T12:03:35;0.27;;;0.20;;
13067;SDS011;6600;51.362;6.686;2022-09-16T12:06:13;0.13;;;0.13;;
13067;SDS011;6600;51.362;6.686;2022-09-16T12:11:18;0.00;;;0.00;;
13067;SDS011;6600;51.362;6.686;2022-09-16T12:13:54;0.20;;;0.10;;
13067;SDS011;6600;51.362;6.686;2022-09-16T12:19:09;0.20;;;0.17;;
13067;SDS011;6600;51.362;6.686;2022-09-16T12:24:36;0.37;;;0.10;;
13067;SDS011;6600;51.362;6.686;2022-09-16T12:27:27;0.20;;;0.20;;
13067;SDS011;6600;51.362;6.686;2022-09-16T12:30:19;0.10;;;0.10;;
13067;SDS011;6600;51.362;6.686;2022-09-16T12:32:56;0.37;;;0.20;;
13067;SDS011;6600;51.362;6.686;2022-09-16T12:35:32;1.30;;;0.20;;
13067;SDS011;6600;51.362;6.686;2022-09-16T12:38:01;0.20;;;0.20;;
13067;SDS011;6600;51.362;6.686;2022-09-16T12:40:28;0.10;;;0.10;;
13067;SDS011;6600;51.362;6.686;2022-09-16T12:48:57;0.30;;;0.20;;
13067;SDS011;6600;51.362;6.686;2022-09-16T12:54:54;0.20;;;0.00;;
13067;SDS011;6600;51.362;6.686;2022-09-16T13:03:30;0.00;;;0.00;;
13067;SDS011;6600;51.362;6.686;2022-09-16T13:06:00;3.03;;;0.20;;
13067;SDS011;6600;51.362;6.686;2022-09-16T13:08:29;0.03;;;0.03;;
13067;SDS011;6600;51.362;6.686;2022-09-16T13:10:57;0.87;;;0.30;;
13067;SDS011;6600;51.362;6.686;2022-09-16T13:13:32;0.60;;;0.40;;
13067;SDS011;6600;51.362;6.686;2022-09-16T13:16:00;0.73;;;0.23;;
13067;SDS011;6600;51.362;6.686;2022-09-16T13:21:28;0.40;;;0.40;;
13067;SDS011;6600;51.362;6.686;2022-09-16T13:24:05;0.60;;;0.37;;
13067;SDS011;6600;51.362;6.686;2022-09-16T13:26:43;0.50;;;0.50;;
13067;SDS011;6600;51.362;6.686;2022-09-16T13:35:02;1.53;;;0.30;;
13067;SDS011;6600;51.362;6.686;2022-09-16T13:37:29;0.30;;;0.30;;
13067;SDS011;6600;51.362;6.686;2022-09-16T13:39:55;0.77;;;0.60;;
13067;SDS011;6600;51.362;6.686;2022-09-16T13:42:20;0.30;;;0.30;;
13067;SDS011;6600;51.362;6.686;2022-09-16T13:44:46;0.57;;;0.57;;
13067;SDS011;6600;51.362;6.686;2022-09-16T13:52:10;0.20;;;0.20;;
13067;SDS011;6600;51.362;6.686;2022-09-16T13:54:41;0.10;;;0.10;;
13067;SDS011;6600;51.362;6.686;2022-09-16T14:02:58;0.50;;;0.10;;
13067;SDS011;6600;51.362;6.686;2022-09-16T14:11:14;0.30;;;0.20;;
13067;SDS011;6600;51.362;6.686;2022-09-16T14:13:51;0.10;;;0.10;;
13067;SDS011;6600;51.362;6.686;2022-09-16T14:16:22;0.10;;;0.10;;
13067;SDS011;6600;51.362;6.686;2022-09-16T14:19:06;0.77;;;0.33;;
13067;SDS011;6600;51.362;6.686;2022-09-16T14:22:05;0.30;;;0.30;;
13067;SDS011;6600;51.362;6.686;2022-09-16T14:24:35;0.00;;;0.00;;
13067;SDS011;6600;51.362;6.686;2022-09-16T14:27:03;0.10;;;0.10;;
13067;SDS011;6600;51.362;6.686;2022-09-16T14:29:29;0.07;;;0.07;;
13067;SDS011;6600;51.362;6.686;2022-09-16T14:31:55;1.17;;;0.30;;
13067;SDS011;6600;51.362;6.686;2022-09-16T14:34:30;1.10;;;0.20;;
13067;SDS011;6600;51.362;6.686;2022-09-16T14:36:59;0.77;;;0.77;;
13067;SDS011;6600;51.362;6.686;2022-09-16T14:39:25;0.40;;;0.23;;
13067;SDS011;6600;51.362;6.686;2022-09-16T14:46:47;0.10;;;0.10;;
13067;SDS011;6600;51.362;6.686;2022-09-16T14:49:14;0.57;;;0.33;;
13067;SDS011;6600;51.362;6.686;2022-09-16T14:51:43;0.87;;;0.20;;
13067;SDS011;6600;51.362;6.686;2022-09-16T14:54:15;1.23;;;0.60;;
13067;SDS011;6600;51.362;6.686;2022-09-16T14:56:52;2.53;;;0.60;;
13067;SDS011;6600;51.362;6.686;2022-09-16T14:59:23;1.60;;;0.20;;
13067;SDS011;6600;51.362;6.686;2022-09-16T15:01:51;0.10;;;0.10;;
13067;SDS011;6600;51.362;6.686;2022-09-16T15:04:25;0.20;;;0.17;;
13067;SDS011;6600;51.362;6.686;2022-09-16T15:06:55;0.50;;;0.30;;
13067;SDS011;6600;51.362;6.686;2022-09-16T15:09:47;0.30;;;0.10;;
13067;SDS011;6600;51.362;6.686;2022-09-16T15:12:16;0.03;;;0.03;;
13067;SDS011;6600;51.362;6.686;2022-09-16T15:14:45;0.20;;;0.20;;
13067;SDS011;6600;51.362;6.686;2022-09-16T15:17:13;0.13;;;0.13;;
13067;SDS011;6600;51.362;6.686;2022-09-16T15:19:45;1.13;;;0.10;;
13067;SDS011;6600;51.362;6.686;2022-09-16T15:22:15;0.20;;;0.20;;
13067;SDS011;6600;51.362;6.686;2022-09-16T15:24:41;0.27;;;0.13;;
13067;SDS011;6600;51.362;6.686;2022-09-16T15:27:06;1.20;;;0.30;;
13067;SDS011;6600;51.362;6.686;2022-09-16T15:29:34;0.27;;;0.27;;
13067;SDS011;6600;51.362;6.686;2022-09-16T15:34:43;0.73;;;0.10;;
13067;SDS011;6600;51.362;6.686;2022-09-16T15:37:26;0.30;;;0.30;;
13067;SDS011;6600;51.362;6.686;2022-09-16T15:39:53;1.40;;;0.47;;
13067;SDS011;6600;51.362;6.686;2022-09-16T15:42:19;0.87;;;0.43;;
13067;SDS011;6600;51.362;6.686;2022-09-16T15:44:51;1.87;;;0.27;;
13067;SDS011;6600;51.362;6.686;2022-09-16T15:49:59;0.67;;;0.30;;
13067;SDS011;6600;51.362;6.686;2022-09-16T15:52:48;2.23;;;0.60;;
13067;SDS011;6600;51.362;6.686;2022-09-16T15:57:58;0.40;;;0.40;;
13067;SDS011;6600;51.362;6.686;2022-09-16T16:03:24;1.00;;;0.40;;
13067;SDS011;6600;51.362;6.686;2022-09-16T16:05:53;0.20;;;0.20;;
13067;SDS011;6600;51.362;6.686;2022-09-16T16:08:35;0.10;;;0.10;;
13067;SDS011;6600;51.362;6.686;2022-09-16T16:11:20;0.00;;;0.00;;
13067;SDS011;6600;51.362;6.686;2022-09-16T16:13:47;0.30;;;0.30;;
13067;SDS011;6600;51.362;6.686;2022-09-16T16:16:15;0.53;;;0.13;;
13067;SDS011;6600;51.362;6.686;2022-09-16T16:18:42;0.00;;;0.00;;
13067;SDS011;6600;51.362;6.686;2022-09-16T16:21:13;1.10;;;0.10;;
13067;SDS011;6600;51.362;6.686;2022-09-16T16:23:40;0.40;;;0.20;;
13067;SDS011;6600;51.362;6.686;2022-09-16T16:26:07;0.23;;;0.23;;
13067;SDS011;6600;51.362;6.686;2022-09-16T16:28:34;0.40;;;0.40;;
13067;SDS011;6600;51.362;6.686;2022-09-16T16:31:33;0.23;;;0.20;;
13067;SDS011;6600;51.362;6.686;2022-09-16T16:33:52;0.20;;;0.20;;
13067;SDS011;6600;51.362;6.686;2022-09-16T16:36:18;0.20;;;0.20;;
13067;SDS011;6600;51.362;6.686;2022-09-16T16:38:45;0.37;;;0.20;;
13067;SDS011;6600;51.362;6.686;2022-09-16T16:41:12;0.57;;;0.27;;
13067;SDS011;6600;51.362;6.686;2022-09-16T16:43:43;1.93;;;0.50;;
13067;SDS011;6600;51.362;6.686;2022-09-16T16:46:09;0.20;;;0.20;;
13067;SDS011;6600;51.362;6.686;2022-09-16T16:48:34;0.70;;;0.40;;
13067;SDS011;6600;51.362;6.686;2022-09-16T16:51:01;1.10;;;0.50;;
13067;SDS011;6600;51.362;6.686;2022-09-16T16:53:28;0.40;;;0.20;;
13067;SDS011;6600;51.362;6.686;2022-09-16T16:56:01;0.40;;;0.40;;
13067;SDS011;6600;51.362;6.686;2022-09-16T16:58:34;2.73;;;0.30;;
13067;SDS011;6600;51.362;6.686;2022-09-16T17:01:10;1.40;;;0.57;;
13067;SDS011;6600;51.362;6.686;2022-09-16T17:03:40;0.10;;;0.10;;
13067;SDS011;6600;51.362;6.686;2022-09-16T17:06:08;0.40;;;0.27;;
13067;SDS011;6600;51.362;6.686;2022-09-16T17:08:34;0.53;;;0.20;;
13067;SDS011;6600;51.362;6.686;2022-09-16T17:11:13;0.80;;;0.20;;
13067;SDS011;6600;51.362;6.686;2022-09-16T17:13:41;0.13;;;0.13;;
13067;SDS011;6600;51.362;6.686;2022-09-16T17:16:08;0.37;;;0.20;;
13067;SDS011;6600;51.362;6.686;2022-09-16T17:18:35;2.97;;;0.40;;
13067;SDS011;6600;51.362;6.686;2022-09-16T17:21:06;1.17;;;0.40;;
13067;SDS011;6600;51.362;6.686;2022-09-16T17:23:33;0.63;;;0.20;;
13067;SDS011;6600;51.362;6.686;2022-09-16T17:25:59;1.03;;;0.30;;
13067;SDS011;6600;51.362;6.686;2022-09-16T17:28:26;1.70;;;0.63;;
13067;SDS011;6600;51.362;6.686;2022-09-16T17:30:51;1.03;;;0.33;;
13067;SDS011;6600;51.362;6.686;2022-09-16T17:33:17;1.53;;;0.40;;
13067;SDS011;6600;51.362;6.686;2022-09-16T17:35:42;0.43;;;0.20;;
13067;SDS011;6600;51.362;6.686;2022-09-16T17:38:08;1.70;;;0.30;;
13067;SDS011;6600;51.362;6.686;2022-09-16T17:40:34;0.47;;;0.40;;
13067;SDS011;6600;51.362;6.686;2022-09-16T17:42:59;0.50;;;0.40;;
13067;SDS011;6600;51.362;6.686;2022-09-16T17:45:25;0.10;;;0.10;;
13067;SDS011;6600;51.362;6.686;2022-09-16T17:47:50;0.40;;;0.30;;
13067;SDS011;6600;51.362;6.686;2022-09-16T17:50:15;0.43;;;0.40;;
13067;SDS011;6600;51.362;6.686;2022-09-16T17:52:42;0.47;;;0.23;;
13067;SDS011;6600;51.362;6.686;2022-09-16T17:55:08;1.50;;;0.70;;
13067;SDS011;6600;51.362;6.686;2022-09-16T17:57:34;1.03;;;0.53;;
13067;SDS011;6600;51.362;6.686;2022-09-16T18:00:01;0.93;;;0.30;;
13067;SDS011;6600;51.362;6.686;2022-09-16T18:02:28;1.60;;;0.47;;
13067;SDS011;6600;51.362;6.686;2022-09-16T18:04:55;0.27;;;0.27;;
13067;SDS011;6600;51.362;6.686;2022-09-16T18:07:24;0.20;;;0.20;;
13067;SDS011;6600;51.362;6.686;2022-09-16T18:09:50;0.37;;;0.27;;
13067;SDS011;6600;51.362;6.686;2022-09-16T18:12:16;0.43;;;0.43;;
13067;SDS011;6600;51.362;6.686;2022-09-16T18:14:42;0.67;;;0.53;;
13067;SDS011;6600;51.362;6.686;2022-09-16T18:17:08;2.10;;;0.60;;
13067;SDS011;6600;51.362;6.686;2022-09-16T18:19:36;2.03;;;0.50;;